createdAt,value
2018-10-19T00:00:57.953Z,11.16
2018-10-19T00:03:27.863Z,11.22
2018-10-19T00:05:57.466Z,11.15
2018-10-19T00:08:26.489Z,11.05
2018-10-19T00:10:55.561Z,11.12
2018-10-19T00:13:25.080Z,11.33
2018-10-19T00:15:54.359Z,11.26
2018-10-19T00:18:23.760Z,11.36
2018-10-19T00:20:52.916Z,11.25
2018-10-19T00:23:21.857Z,11.33
2018-10-19T00:25:50.999Z,11.33
2018-10-19T00:28:20.568Z,11.31
2018-10-19T00:30:49.602Z,11.37
2018-10-19T00:33:19.345Z,11.35
2018-10-19T00:35:49.020Z,11.33
2018-10-19T00:38:18.283Z,11.19
2018-10-19T00:40:47.453Z,11.19
2018-10-19T00:43:17.088Z,11.16
2018-10-19T00:45:47.204Z,10.96
2018-10-19T00:48:19.812Z,11.17
2018-10-19T00:50:48.786Z,11.09
2018-10-19T00:53:18.048Z,11.02
2018-10-19T00:55:47.511Z,11.02
2018-10-19T00:58:17.284Z,11.18
2018-10-19T01:00:47.161Z,11.18
2018-10-19T01:03:16.092Z,11.23
2018-10-19T01:05:45.080Z,11.21
2018-10-19T01:08:14.544Z,11.09
2018-10-19T01:10:43.673Z,11.28
2018-10-19T01:13:13.407Z,11.11
2018-10-19T01:15:43.573Z,11.30
2018-10-19T01:18:12.366Z,11.23
2018-10-19T01:20:41.877Z,11.26
2018-10-19T01:23:11.034Z,10.89
2018-10-19T01:25:42.158Z,10.80
2018-10-19T01:28:11.710Z,10.76
2018-10-19T01:30:41.227Z,10.97
2018-10-19T01:33:10.403Z,10.99
2018-10-19T01:35:39.707Z,10.88
2018-10-19T01:38:08.883Z,10.91
2018-10-19T01:40:37.924Z,11.01
2018-10-19T01:43:07.598Z,11.06
2018-10-19T01:45:36.580Z,11.01
2018-10-19T01:48:05.573Z,11.20
2018-10-19T01:50:34.757Z,11.20
2018-10-19T01:53:03.761Z,11.12
2018-10-19T01:55:32.685Z,11.26
2018-10-19T01:58:01.907Z,11.30
2018-10-19T02:00:31.181Z,11.33
2018-10-19T02:03:00.290Z,11.30
2018-10-19T02:05:29.049Z,11.19
2018-10-19T02:07:57.999Z,11.13
2018-10-19T02:10:27.576Z,11.24
2018-10-19T02:12:56.581Z,11.14
2018-10-19T02:15:25.305Z,11.07
2018-10-19T02:17:54.320Z,11.09
2018-10-19T02:20:23.506Z,11.08
2018-10-19T02:22:52.960Z,11.15
2018-10-19T02:25:22.047Z,11.06
2018-10-19T02:27:51.188Z,11.17
2018-10-19T02:30:20.648Z,11.35
2018-10-19T02:32:49.804Z,11.32
2018-10-19T02:35:18.876Z,11.36
2018-10-19T02:37:48.154Z,11.39
2018-10-19T02:40:17.161Z,11.48
2018-10-19T02:42:46.508Z,11.50
2018-10-19T02:45:15.614Z,11.51
2018-10-19T02:47:45.210Z,11.35
2018-10-19T02:50:14.766Z,11.58
2018-10-19T02:52:44.159Z,11.57
2018-10-19T02:55:14.151Z,11.67
2018-10-19T02:57:43.110Z,11.72
2018-10-19T03:00:12.929Z,11.77
2018-10-19T03:02:42.263Z,11.55
2018-10-19T03:05:11.241Z,11.52
2018-10-19T03:07:40.277Z,11.57
2018-10-19T03:10:09.679Z,11.69
2018-10-19T03:12:39.518Z,11.69
2018-10-19T03:15:09.185Z,11.67
2018-10-19T03:17:38.017Z,11.60
2018-10-19T03:20:07.857Z,11.59
2018-10-19T03:22:37.371Z,11.66
2018-10-19T03:25:06.848Z,11.71
2018-10-19T03:27:36.622Z,11.75
2018-10-19T03:30:06.387Z,11.89
2018-10-19T03:32:35.732Z,11.94
2018-10-19T03:35:04.673Z,11.99
2018-10-19T03:37:34.060Z,12.04
2018-10-19T03:40:03.358Z,11.96
2018-10-19T03:42:32.562Z,11.91
2018-10-19T03:45:01.844Z,12.08
2018-10-19T03:47:31.095Z,12.09
2018-10-19T03:50:00.320Z,12.06
2018-10-19T03:52:29.356Z,12.04
2018-10-19T03:54:58.461Z,12.09
2018-10-19T03:57:27.696Z,12.12
2018-10-19T03:59:56.711Z,12.08
2018-10-19T04:02:26.649Z,12.09
2018-10-19T04:04:55.932Z,12.08
2018-10-19T04:07:25.355Z,12.09
2018-10-19T04:09:54.506Z,12.11
2018-10-19T04:12:23.635Z,12.09
2018-10-19T04:14:53.389Z,12.16
2018-10-19T04:17:22.904Z,12.08
2018-10-19T04:19:52.286Z,12.12
2018-10-19T04:22:21.530Z,12.05
2018-10-19T04:24:50.264Z,12.15
2018-10-19T04:27:20.131Z,12.12
2018-10-19T04:29:49.585Z,12.11
2018-10-19T04:32:19.277Z,12.09
2018-10-19T04:34:48.797Z,12.06
2018-10-19T04:37:18.058Z,12.14
2018-10-19T04:39:47.715Z,12.15
2018-10-19T04:42:16.974Z,12.16
2018-10-19T04:44:45.767Z,12.20
2018-10-19T04:47:14.716Z,12.16
2018-10-19T04:49:43.585Z,12.19
2018-10-19T04:52:13.244Z,12.18
2018-10-19T04:54:42.512Z,12.17
2018-10-19T04:57:12.024Z,12.29
2018-10-19T04:59:41.303Z,12.17
2018-10-19T05:02:10.748Z,12.24
2018-10-19T05:04:40.392Z,12.20
2018-10-19T05:07:09.633Z,12.17
2018-10-19T05:09:38.693Z,12.24
2018-10-19T05:12:08.401Z,12.26
2018-10-19T05:14:37.918Z,12.18
2018-10-19T05:17:07.116Z,12.20
2018-10-19T05:19:36.922Z,12.16
2018-10-19T05:22:05.997Z,12.13
2018-10-19T05:24:35.419Z,11.98
2018-10-19T05:27:05.084Z,11.86
2018-10-19T05:29:34.558Z,11.73
2018-10-19T05:32:03.712Z,11.78
2018-10-19T05:34:32.673Z,11.95
2018-10-19T05:37:02.133Z,11.93
2018-10-19T05:39:31.431Z,11.92
2018-10-19T05:42:01.142Z,12.02
2018-10-19T05:44:30.274Z,11.97
2018-10-19T05:46:59.644Z,12.04
2018-10-19T05:49:28.767Z,11.97
2018-10-19T05:51:58.379Z,11.99
2018-10-19T05:54:27.939Z,11.95
2018-10-19T05:56:57.525Z,11.94
2018-10-19T05:59:26.295Z,11.90
2018-10-19T06:01:55.121Z,12.01
2018-10-19T06:04:24.343Z,11.88
2018-10-19T06:06:53.414Z,11.86
2018-10-19T06:09:22.758Z,12.01
2018-10-19T06:11:52.273Z,12.01
2018-10-19T06:14:21.575Z,11.94
2018-10-19T06:16:50.577Z,11.85
2018-10-19T06:19:19.914Z,11.98
2018-10-19T06:21:49.479Z,11.99
2018-10-19T06:24:18.472Z,12.14
2018-10-19T06:26:48.846Z,12.08
2018-10-19T06:29:18.341Z,12.10
2018-10-19T06:31:47.577Z,12.07
2018-10-19T06:34:17.270Z,12.26
2018-10-19T06:36:46.615Z,12.20
2018-10-19T06:39:15.612Z,12.27
2018-10-19T06:41:44.698Z,12.26
2018-10-19T06:44:13.770Z,12.24
2018-10-19T06:46:43.032Z,12.26
2018-10-19T06:49:12.237Z,12.31
2018-10-19T06:51:41.633Z,12.40
2018-10-19T06:54:11.194Z,12.39
2018-10-19T06:56:40.561Z,12.44
2018-10-19T06:59:10.194Z,12.32
2018-10-19T07:01:39.600Z,12.42
2018-10-19T07:04:09.399Z,12.32
2018-10-19T07:06:38.406Z,12.42
2018-10-19T07:09:08.225Z,12.55
2018-10-19T07:11:37.540Z,12.65
2018-10-19T07:14:07.092Z,12.58
2018-10-19T07:16:37.212Z,12.74
2018-10-19T07:19:06.580Z,12.87
2018-10-19T07:21:36.045Z,12.94
2018-10-19T07:24:05.303Z,12.95
2018-10-19T07:26:34.816Z,12.76
2018-10-19T07:29:04.139Z,12.95
2018-10-19T07:31:33.999Z,12.93
2018-10-19T07:34:03.051Z,13.07
2018-10-19T07:36:32.401Z,13.10
2018-10-19T07:39:01.418Z,13.14
2018-10-19T07:41:30.713Z,13.08
2018-10-19T07:43:59.831Z,13.12
2018-10-19T07:46:29.432Z,13.20
2018-10-19T07:48:58.715Z,13.39
2018-10-19T07:51:28.021Z,13.40
2018-10-19T07:53:57.345Z,13.49
2018-10-19T07:56:27.076Z,13.51
2018-10-19T07:58:56.564Z,13.66
2018-10-19T08:01:26.093Z,13.54
2018-10-19T08:03:55.545Z,13.51
2018-10-19T08:06:24.735Z,13.60
2018-10-19T08:08:53.628Z,13.69
2018-10-19T08:11:23.335Z,13.83
2018-10-19T08:13:52.580Z,13.91
2018-10-19T08:16:21.819Z,13.89
2018-10-19T08:18:50.753Z,13.60
2018-10-19T08:21:19.562Z,13.74
2018-10-19T08:23:49.205Z,13.85
2018-10-19T08:26:18.554Z,13.92
2018-10-19T08:28:49.055Z,13.86
2018-10-19T08:31:18.239Z,13.82
2018-10-19T08:33:47.944Z,14.02
2018-10-19T08:36:17.595Z,14.01
2018-10-19T08:38:46.696Z,14.16
2018-10-19T08:41:15.869Z,14.36
2018-10-19T08:43:44.691Z,14.73
2018-10-19T08:46:18.712Z,14.73
2018-10-19T08:48:48.070Z,15.07
2018-10-19T08:51:17.498Z,14.71
2018-10-19T08:53:46.997Z,15.02
2018-10-19T08:56:16.066Z,15.08
2018-10-19T08:58:45.419Z,14.85
2018-10-19T09:01:14.727Z,15.00
2018-10-19T09:03:44.073Z,15.22
2018-10-19T09:06:13.686Z,15.15
2018-10-19T09:08:43.662Z,15.32
2018-10-19T09:11:13.279Z,15.38
2018-10-19T09:13:42.426Z,15.67
2018-10-19T09:16:11.463Z,15.63
2018-10-19T09:18:41.056Z,15.54
2018-10-19T09:21:10.337Z,15.64
2018-10-19T09:23:40.468Z,15.53
2018-10-19T09:26:09.559Z,15.60
2018-10-19T09:28:38.998Z,15.69
2018-10-19T09:31:08.593Z,15.75
2018-10-19T09:33:38.392Z,15.82
2018-10-19T09:36:08.089Z,15.92
2018-10-19T09:38:37.241Z,16.07
2018-10-19T09:41:07.736Z,15.99
2018-10-19T09:43:36.884Z,16.21
2018-10-19T09:46:06.684Z,16.18
2018-10-19T09:48:36.364Z,16.31
2018-10-19T09:51:05.778Z,16.46
2018-10-19T09:53:34.853Z,16.65
2018-10-19T09:56:04.018Z,16.32
2018-10-19T09:58:33.163Z,16.22
2018-10-19T10:01:02.975Z,16.22
2018-10-19T10:03:32.092Z,16.38
2018-10-19T10:06:01.360Z,16.37
2018-10-19T10:08:30.938Z,16.18
2018-10-19T10:11:00.656Z,16.46
2018-10-19T10:13:29.742Z,16.42
2018-10-19T10:15:59.702Z,16.43
2018-10-19T10:18:29.278Z,16.66
2018-10-19T10:20:58.690Z,16.56
2018-10-19T10:23:28.850Z,16.50
2018-10-19T10:25:57.737Z,16.70
2018-10-19T10:28:27.100Z,16.83
2018-10-19T10:30:58.024Z,16.96
2018-10-19T10:33:27.184Z,16.71
2018-10-19T10:35:56.113Z,16.92
2018-10-19T10:38:26.477Z,17.00
2018-10-19T10:40:55.536Z,16.75
2018-10-19T10:43:25.026Z,16.93
2018-10-19T10:45:54.464Z,16.98
2018-10-19T10:48:23.775Z,17.15
2018-10-19T10:50:52.687Z,17.35
2018-10-19T10:53:23.448Z,17.46
2018-10-19T10:55:52.489Z,17.67
2018-10-19T10:58:21.600Z,17.38
2018-10-19T11:00:50.776Z,17.73
2018-10-19T11:03:20.108Z,17.77
2018-10-19T11:05:49.366Z,17.99
2018-10-19T11:08:18.747Z,17.92
2018-10-19T11:10:48.200Z,17.92
2018-10-19T11:13:18.367Z,18.15
2018-10-19T11:15:48.390Z,18.15
2018-10-19T11:18:17.983Z,18.14
2018-10-19T11:20:47.843Z,18.22
2018-10-19T11:23:18.334Z,17.97
2018-10-19T11:25:47.986Z,18.07
2018-10-19T11:28:20.490Z,18.21
2018-10-19T11:30:49.447Z,18.16
2018-10-19T11:33:18.365Z,18.03
2018-10-19T11:35:47.355Z,18.09
2018-10-19T11:38:17.019Z,18.15
2018-10-19T11:40:46.084Z,18.05
2018-10-19T11:43:16.056Z,18.24
2018-10-19T11:45:46.080Z,18.36
2018-10-19T11:48:15.045Z,18.48
2018-10-19T11:50:44.319Z,18.56
2018-10-19T11:53:13.829Z,18.57
2018-10-19T11:55:43.106Z,18.93
2018-10-19T11:58:12.386Z,18.93
2018-10-19T12:00:42.395Z,19.10
2018-10-19T12:03:11.595Z,18.92
2018-10-19T12:05:41.039Z,18.70
2018-10-19T12:08:10.256Z,19.05
2018-10-19T12:10:40.413Z,18.70
2018-10-19T12:13:10.685Z,18.83
2018-10-19T12:15:39.885Z,19.23
2018-10-19T12:18:09.095Z,19.61
2018-10-19T12:20:38.944Z,19.79
2018-10-19T12:23:07.917Z,20.00
2018-10-19T12:25:37.901Z,20.18
2018-10-19T12:28:07.622Z,20.11
2018-10-19T12:30:37.421Z,20.09
2018-10-19T12:33:06.511Z,19.71
2018-10-19T12:35:35.846Z,19.24
2018-10-19T12:38:06.329Z,19.37
2018-10-19T12:40:35.580Z,19.35
2018-10-19T12:43:06.901Z,19.65
2018-10-19T12:47:43.424Z,19.68
2018-10-19T12:50:12.820Z,19.79
2018-10-19T12:52:42.643Z,19.40
2018-10-19T12:55:12.699Z,19.68
2018-10-19T12:57:42.606Z,19.69
2018-10-19T13:00:12.404Z,19.65
2018-10-19T13:02:41.789Z,19.60
2018-10-19T13:05:10.489Z,19.72
2018-10-19T13:07:40.037Z,19.59
2018-10-19T13:10:09.399Z,19.65
2018-10-19T13:12:43.484Z,19.23
2018-10-19T13:15:14.275Z,19.37
2018-10-19T13:17:43.834Z,19.40
2018-10-19T13:20:14.254Z,19.26
2018-10-19T13:22:44.322Z,19.52
2018-10-19T13:25:13.944Z,19.36
2018-10-19T13:27:44.611Z,19.19
2018-10-19T13:30:14.547Z,19.26
2018-10-19T13:32:44.589Z,19.30
2018-10-19T13:35:13.946Z,18.77
2018-10-19T13:37:43.694Z,18.74
2018-10-19T13:40:14.203Z,18.97
2018-10-19T13:42:43.589Z,18.58
2018-10-19T13:45:13.919Z,18.93
2018-10-19T13:47:43.322Z,18.68
2018-10-19T13:50:13.651Z,19.08
2018-10-19T13:52:43.076Z,19.31
2018-10-19T13:55:12.000Z,19.17
2018-10-19T13:57:40.833Z,19.28
2018-10-19T14:00:10.937Z,18.92
2018-10-19T14:02:40.964Z,18.99
2018-10-19T14:05:11.416Z,18.97
2018-10-19T14:07:40.866Z,18.96
2018-10-19T14:10:11.554Z,19.26
2018-10-19T14:12:41.112Z,19.03
2018-10-19T14:15:11.718Z,19.42
2018-10-19T14:17:42.181Z,19.20
2018-10-19T14:20:13.165Z,19.14
2018-10-19T14:22:42.451Z,19.04
2018-10-19T14:25:14.052Z,18.97
2018-10-19T14:27:45.597Z,19.02
2018-10-19T14:30:16.935Z,18.95
2018-10-19T14:32:46.634Z,18.96
2018-10-19T14:35:16.599Z,18.81
2018-10-19T14:37:47.313Z,18.85
2018-10-19T14:40:19.395Z,18.94
2018-10-19T14:42:50.013Z,19.15
2018-10-19T14:45:19.391Z,19.16
2018-10-19T14:47:49.136Z,19.14
2018-10-19T14:50:19.634Z,19.28
2018-10-19T14:52:49.004Z,19.10
2018-10-19T14:55:19.653Z,19.31
2018-10-19T14:57:50.149Z,19.11
2018-10-19T15:00:20.833Z,19.19
2018-10-19T15:02:50.330Z,19.10
2018-10-19T15:05:20.966Z,18.84
2018-10-19T15:07:51.952Z,18.84
2018-10-19T15:10:23.083Z,18.60
2018-10-19T15:12:51.488Z,18.53
2018-10-19T15:15:23.681Z,18.67
2018-10-19T15:17:54.812Z,18.78
2018-10-19T15:20:25.308Z,18.56
2018-10-19T15:22:55.197Z,18.30
2018-10-19T15:25:24.574Z,17.98
2018-10-19T15:27:54.189Z,18.14
2018-10-19T15:30:24.324Z,18.12
2018-10-19T15:32:54.506Z,18.16
2018-10-19T15:35:24.488Z,18.04
2018-10-19T15:37:55.023Z,18.08
2018-10-19T15:40:26.305Z,18.00
2018-10-19T15:42:55.504Z,18.00
2018-10-19T15:45:24.972Z,17.87
2018-10-19T15:47:54.122Z,17.72
2018-10-19T15:50:25.662Z,17.85
2018-10-19T15:52:55.345Z,17.94
2018-10-19T15:55:27.613Z,17.86
2018-10-19T15:57:58.172Z,17.64
2018-10-19T16:00:27.304Z,17.56
2018-10-19T16:02:56.881Z,17.56
2018-10-19T16:05:26.768Z,17.57
2018-10-19T16:07:56.272Z,17.43
2018-10-19T16:10:26.547Z,17.35
2018-10-19T16:12:56.013Z,17.32
2018-10-19T16:15:25.168Z,17.24
2018-10-19T16:17:54.564Z,17.27
2018-10-19T16:20:23.412Z,17.21
2018-10-19T16:22:52.229Z,17.20
2018-10-19T16:25:21.354Z,17.15
2018-10-19T16:27:50.812Z,17.04
2018-10-19T16:30:20.159Z,17.14
2018-10-19T16:32:49.693Z,17.15
2018-10-19T16:35:18.740Z,17.01
2018-10-19T16:37:47.786Z,16.87
2018-10-19T16:40:17.753Z,16.83
2018-10-19T16:42:47.225Z,16.76
2018-10-19T16:45:16.658Z,16.84
2018-10-19T16:47:45.697Z,16.82
2018-10-19T16:50:15.016Z,16.68
2018-10-19T16:52:44.220Z,16.64
2018-10-19T16:55:13.501Z,16.54
2018-10-19T16:57:42.356Z,16.54
2018-10-19T17:00:12.208Z,16.55
2018-10-19T17:02:41.471Z,16.55
2018-10-19T17:05:10.365Z,16.54
2018-10-19T17:07:40.349Z,16.43
2018-10-19T17:10:09.927Z,16.42
2018-10-19T17:12:38.999Z,16.42
2018-10-19T17:15:09.165Z,16.43
2018-10-19T17:17:38.260Z,16.37
2018-10-19T17:20:08.695Z,16.25
2018-10-19T17:22:38.149Z,16.27
2018-10-19T17:25:09.597Z,16.29
2018-10-19T17:27:39.057Z,16.21
2018-10-19T17:30:11.264Z,16.21
2018-10-19T17:32:40.975Z,16.17
2018-10-19T17:35:10.737Z,16.20
2018-10-19T17:37:39.993Z,16.09
2018-10-19T17:40:10.089Z,16.24
2018-10-19T17:42:39.378Z,16.19
2018-10-19T17:45:10.701Z,16.13
2018-10-19T17:47:42.995Z,16.06
2018-10-19T17:50:12.857Z,16.11
2018-10-19T17:52:43.206Z,16.07
2018-10-19T17:55:12.991Z,15.94
2018-10-19T17:57:42.430Z,16.03
2018-10-19T18:00:13.692Z,16.11
2018-10-19T18:02:43.845Z,16.14
2018-10-19T18:05:13.048Z,16.04
2018-10-19T18:07:42.684Z,16.01
2018-10-19T18:10:12.305Z,15.98
2018-10-19T18:12:40.931Z,15.93
2018-10-19T18:15:10.253Z,15.69
2018-10-19T18:17:39.393Z,15.77
2018-10-19T18:20:08.910Z,15.76
2018-10-19T18:22:38.641Z,15.76
2018-10-19T18:25:08.459Z,15.84
2018-10-19T18:27:37.788Z,15.83
2018-10-19T18:30:08.017Z,15.69
2018-10-19T18:32:39.149Z,15.60
2018-10-19T18:35:09.589Z,15.71
2018-10-19T18:37:38.512Z,15.71
2018-10-19T18:40:09.030Z,15.72
2018-10-19T18:42:37.961Z,15.73
2018-10-19T18:45:07.874Z,15.66
2018-10-19T18:47:37.416Z,15.66
2018-10-19T18:50:07.788Z,15.70
2018-10-19T18:52:36.556Z,15.77
2018-10-19T18:55:05.649Z,15.71
2018-10-19T18:57:35.247Z,15.69
2018-10-19T19:00:04.699Z,15.65
2018-10-19T19:02:34.800Z,15.65
2018-10-19T19:05:04.317Z,15.60
2018-10-19T19:07:34.082Z,15.59
2018-10-19T19:10:14.208Z,15.59
2018-10-19T19:12:43.924Z,15.66
2018-10-19T19:15:13.353Z,15.61
2018-10-19T19:17:43.876Z,15.69
2018-10-19T19:20:17.930Z,15.69
2018-10-19T19:22:46.493Z,15.62
2018-10-19T19:25:21.245Z,15.69
2018-10-19T19:27:51.377Z,15.66
2018-10-19T19:30:20.982Z,15.55
2018-10-19T19:32:55.183Z,15.55
2018-10-19T19:35:24.281Z,15.64
2018-10-19T19:37:54.598Z,15.60
2018-10-19T19:40:23.574Z,15.57
2018-10-19T19:42:54.828Z,15.56
2018-10-19T19:45:24.125Z,15.56
2018-10-19T19:47:58.465Z,15.49
2018-10-19T19:50:27.886Z,15.47
2018-10-19T19:52:57.764Z,15.49
2018-10-19T19:55:27.071Z,15.44
2018-10-19T19:57:55.661Z,15.45
2018-10-19T20:00:24.908Z,15.49
2018-10-19T20:02:53.819Z,15.54
2018-10-19T20:05:23.566Z,15.51
2018-10-19T20:07:53.081Z,15.45
2018-10-19T20:10:23.152Z,15.46
2018-10-19T20:12:52.775Z,15.46
2018-10-19T20:15:22.618Z,15.46
2018-10-19T20:17:51.999Z,15.47
2018-10-19T20:20:20.888Z,15.45
2018-10-19T20:22:50.922Z,15.52
2018-10-19T20:25:21.316Z,15.47
2018-10-19T20:27:50.491Z,15.49
2018-10-19T20:30:20.350Z,15.44
2018-10-19T20:32:49.745Z,15.48
2018-10-19T20:35:18.841Z,15.32
2018-10-19T20:37:49.468Z,15.40
2018-10-19T20:40:19.400Z,15.40
2018-10-19T20:42:48.001Z,15.54
2018-10-19T20:45:17.657Z,15.57
2018-10-19T20:47:47.210Z,15.73
2018-10-19T20:50:16.275Z,15.68
2018-10-19T20:52:45.388Z,15.51
2018-10-19T20:55:14.584Z,15.46
2018-10-19T20:57:45.029Z,15.52
2018-10-19T21:00:14.891Z,15.44
2018-10-19T21:02:44.241Z,15.27
2018-10-19T21:05:13.362Z,15.09
2018-10-19T21:07:42.483Z,15.17
2018-10-19T21:10:13.007Z,15.20
2018-10-19T21:12:42.291Z,15.26
2018-10-19T21:15:12.613Z,15.06
2018-10-19T21:17:43.734Z,14.85
2018-10-19T21:20:13.934Z,14.79
2018-10-19T21:22:44.141Z,14.55
2018-10-19T21:25:13.896Z,14.42
2018-10-19T21:27:43.984Z,14.36
2018-10-19T21:30:14.180Z,14.23
2018-10-19T21:32:44.431Z,14.12
2018-10-19T21:35:15.594Z,14.09
2018-10-19T21:37:46.096Z,14.12
2018-10-19T21:40:16.707Z,14.15
2018-10-19T21:42:45.989Z,14.15
2018-10-19T21:45:15.447Z,14.22
2018-10-19T21:47:44.260Z,14.21
2018-10-19T21:50:13.158Z,14.09
2018-10-19T21:52:42.424Z,13.78
2018-10-19T21:55:12.453Z,13.80
2018-10-19T21:57:41.490Z,13.69
2018-10-19T22:00:11.393Z,13.57
2018-10-19T22:02:40.725Z,13.56
2018-10-19T22:05:10.727Z,13.62
2018-10-19T22:07:44.175Z,13.64
2018-10-19T22:10:13.065Z,13.62
2018-10-19T22:12:43.537Z,13.57
2018-10-19T22:15:12.401Z,13.50
2018-10-19T22:17:42.507Z,13.38
2018-10-19T22:20:11.789Z,13.22
2018-10-19T22:22:41.552Z,13.14
2018-10-19T22:25:11.224Z,13.09
2018-10-19T22:27:40.598Z,13.06
2018-10-19T22:30:10.403Z,13.07
2018-10-19T22:32:39.674Z,12.92
2018-10-19T22:35:09.335Z,12.94
2018-10-19T22:37:38.557Z,13.07
2018-10-19T22:40:07.960Z,13.09
2018-10-19T22:42:37.239Z,13.16
2018-10-19T22:45:06.258Z,13.16
2018-10-19T22:47:35.440Z,13.12
2018-10-19T22:50:05.498Z,13.02
2018-10-19T22:52:35.422Z,13.00
2018-10-19T22:55:05.273Z,12.84
2018-10-19T22:57:34.905Z,12.88
2018-10-19T23:00:04.373Z,12.99
2018-10-19T23:02:34.116Z,12.97
2018-10-19T23:05:03.367Z,12.92
2018-10-19T23:07:32.526Z,12.98
2018-10-19T23:10:01.998Z,12.90
2018-10-19T23:12:30.630Z,13.00
2018-10-19T23:14:59.981Z,12.96
2018-10-19T23:17:29.549Z,13.00
2018-10-19T23:19:58.132Z,12.90
2018-10-19T23:22:26.681Z,12.91
2018-10-19T23:24:57.181Z,12.83
2018-10-19T23:27:26.591Z,12.66
2018-10-19T23:29:56.199Z,12.81
2018-10-19T23:32:24.801Z,12.86
2018-10-19T23:34:54.188Z,12.81
2018-10-19T23:37:23.677Z,12.80
2018-10-19T23:39:53.305Z,12.99
2018-10-19T23:42:22.314Z,12.76
2018-10-19T23:44:50.947Z,12.64
2018-10-19T23:47:21.122Z,12.70
2018-10-19T23:49:50.597Z,12.71
2018-10-19T23:52:19.402Z,12.62
2018-10-19T23:54:48.681Z,12.75
2018-10-19T23:57:18.633Z,12.82
2018-10-19T23:59:47.769Z,12.69
